Αναφορές Αεροδρομίων

 

KSJC - San Jose, California, USA
Distance from station: ΒΑ 14km
Ενημερώθηκε: 08/05/2021 13:53
Αίθριος
Αίθριος
 Ανεμος από ΒΒΔ
Ανεμος: ΒΒΔ 6 km/h
Θερμοκρασία: 12°C
Σημείο Δρόσου: 8°C
Υγρασία: 77%
Βαρόμετρο: 1016.6 hPa
Clouds: Αίθριος
Visibility: 14 km
2021/05/08 10:53 KSJC 081053Z AUTO 34003KT 9SM CLR 12/08 A3002 RMK AO2 SLP166 T01170078
KNUQ - Moffett Nas/Mtn, California, USA
Distance from station: Β 14km
Ενημερώθηκε: 14/04/2021 01:40
NOT Current

 
2021/04/13 22:40 KNUQ 132240Z AUTO RMK AO2 PNO PWINO TSNO
 
KPAO - Palo Alto, California, USA
Distance from station: ΒΒΔ 23km
Ενημερώθηκε: 08/05/2021 06:47
NOT Current
Αίθριος
Αίθριος
 Ανεμος από ΒΒΔ
Ανεμος: ΒΒΔ 13 km/h
Θερμοκρασία: 15°C
Σημείο Δρόσου: 6°C
Υγρασία: 55%
Βαρόμετρο: 1016.3 hPa
Clouds: Αίθριος
Visibility: 16 km
2021/05/08 03:47 KPAO 080347Z 33007KT 10SM SKC 15/06 A3001
KRHV - San Jose/Reid, California, USA
Distance from station: ΑΒΑ 19km
Ενημερώθηκε: 08/05/2021 02:47
NOT Current
Αίθριος
Αίθριος
 Ανεμος από ΒΔ
Ανεμος: ΒΔ 19 km/h
Θερμοκρασία: 23°C
Σημείο Δρόσου: 8°C
Υγρασία: 38%
Βαρόμετρο: 1015.9 hPa
Clouds: Αίθριος
Visibility: 16 km
2021/05/07 23:47 KRHV 072347Z 32010KT 10SM SKC 23/08 A3000
 
KOAK - Oakland, California, USA
Distance from station: ΒΒΔ 50km
Ενημερώθηκε: 08/05/2021 13:53
Αίθριος
Αίθριος
 Ανεμος από ΒΑ
Ανεμος: ΒΑ 7 km/h
Θερμοκρασία: 10°C
Wind Chill: 9°C
Σημείο Δρόσου: 7°C
Υγρασία: 82%
Βαρόμετρο: 1016.9 hPa
Clouds: Αίθριος
Visibility: 14 km
2021/05/08 10:53 KOAK 081053Z 05004KT 9SM CLR 10/07 A3003 RMK AO2 SLP168 T01000072
KSQL - San Carlos Airpo, California, USA
Distance from station: ΒΔ 34km
Ενημερώθηκε: 08/05/2021 13:55
Αίθριος
Αίθριος
 Ανεμος από calm
Ανεμος: Απνοια
Θερμοκρασία: 11°C
Σημείο Δρόσου: 5°C
Υγρασία: 67%
Βαρόμετρο: 1016.9 hPa
Clouds: Αίθριος
Visibility: 16 km
2021/05/08 10:55 KSQL 081055Z AUTO 00000KT 10SM CLR 11/05 A3003 RMK AO2
 
KSFO - San Francisco, California, USA
Distance from station: ΒΔ 49km
Ενημερώθηκε: 08/05/2021 13:56
Αίθριος
Αίθριος
 Ανεμος από ΔΒΔ
Ανεμος: ΔΒΔ 11 km/h
Θερμοκρασία: 11°C
Σημείο Δρόσου: 7°C
Υγρασία: 77%
Βαρόμετρο: 1016.6 hPa
Clouds: Αίθριος
Visibility: 16 km
2021/05/08 10:56 KSFO 081056Z 29006KT 10SM CLR 11/07 A3002 RMK AO2 SLP167 T01110067
KE16 - San Martin, California, USA
Distance from station: ΑΝΑ 43km
Ενημερώθηκε: 08/05/2021 13:55

 Ανεμος από ΒΒΔ
Ανεμος: ΒΒΔ 6 km/h
Θερμοκρασία: 8°C
Σημείο Δρόσου: 5°C
Υγρασία: 82%
Βαρόμετρο: 1017.3 hPa
Visibility: 16 km
2021/05/08 10:55 KE16 081055Z AUTO 34003KT 10SM 08/05 A3004 RMK AO2 PWINO PNO
 
KWVI - Watsonville, California, USA
Distance from station: ΝΝΑ 44km
Ενημερώθηκε: 08/05/2021 13:53
Αίθριος
Αίθριος
 Ανεμος από Β
Ανεμος: Β 6 km/h
Θερμοκρασία: 8°C
Σημείο Δρόσου: 6°C
Υγρασία: 87%
Βαρόμετρο: 1016.6 hPa
Clouds: Αίθριος
Visibility: 16 km
2021/05/08 10:53 KWVI 081053Z AUTO 35003KT 10SM CLR 08/06 A3002 RMK AO2 SLP166 T00780061
KHAF - Half Moon Bay, California, USA
Distance from station: ΔΒΔ 50km
Ενημερώθηκε: 08/05/2021 13:55
Mist, Συννεφιά
Mist, Συννεφιά
 Ανεμος από calm
Ανεμος: Απνοια
Θερμοκρασία: 4°C
Σημείο Δρόσου: 3°C
Υγρασία: 93%
Βαρόμετρο: 1017.3 hPa
Περίληψη: Mist
Clouds: Συννεφιά
Visibility: 6 km
Cloud details: Συννεφιά 91 m
2021/05/08 10:55 KHAF 081055Z AUTO 00000KT 4SM BR OVC003 04/03 A3004 RMK AO2
 
KHWD - Hayward, California, USA
Distance from station: Β 44km
Ενημερώθηκε: 08/05/2021 13:54
Αίθριος
Αίθριος
 Ανεμος από ΑΒΑ
Ανεμος: ΑΒΑ 6 km/h
Θερμοκρασία: 10°C
Σημείο Δρόσου: 6°C
Υγρασία: 76%
Βαρόμετρο: 1016.6 hPa
Clouds: Αίθριος
Visibility: 16 km
2021/05/08 10:54 KHWD 081054Z 06003KT 10SM CLR 10/06 A3002 RMK AO2 SLP176 T01000061
KLVK - Livermore, California, USA
Distance from station: ΒΒΑ 51km
Ενημερώθηκε: 08/05/2021 13:53
Αίθριος
Αίθριος
 Ανεμος από Β
Ανεμος: Β 6 km/h
Θερμοκρασία: 10°C
Σημείο Δρόσου: 5°C
Υγρασία: 71%
Βαρόμετρο: 1016.6 hPa
Clouds: Αίθριος
Visibility: 16 km
2021/05/08 10:53 KLVK 081053Z AUTO 36003KT 10SM CLR 10/05 A3002 RMK AO2 SLP161 T01000050